createdAt,value
2022-09-05T00:02:48.880Z,99074.71
2022-09-05T00:06:16.318Z,99068.31
2022-09-05T00:10:05.739Z,99071.35
2022-09-05T00:13:32.882Z,99067.55
2022-09-05T00:17:03.317Z,99066.53
2022-09-05T00:24:37.399Z,99062.34
2022-09-05T00:25:01.008Z,99057.92
2022-09-05T00:29:16.251Z,99053.58
2022-09-05T00:33:20.389Z,99053.52
2022-09-05T00:36:54.744Z,99053.93
2022-09-05T00:40:25.177Z,99057.91
2022-09-05T00:43:49.106Z,99059.89
2022-09-05T00:47:30.901Z,99059.05
2022-09-05T00:51:17.444Z,99057.02
2022-09-05T00:54:54.902Z,99057.98
2022-09-05T00:58:42.518Z,99062.94
2022-09-05T01:02:13.800Z,99062.95
2022-09-05T01:05:51.979Z,99061.56
2022-09-05T01:09:20.350Z,99063.55
2022-09-05T01:12:52.758Z,99063.00
2022-09-05T01:16:34.880Z,99060.74
2022-09-05T01:20:19.710Z,99064.46
2022-09-05T01:24:11.110Z,99067.41
2022-09-05T01:29:12.938Z,99068.23
2022-09-05T01:31:47.097Z,99068.57
2022-09-05T01:35:25.606Z,99070.97
2022-09-05T01:40:10.616Z,99066.23
2022-09-05T01:42:49.225Z,99064.11
2022-09-05T01:46:34.214Z,99064.04
2022-09-05T01:50:00.819Z,99065.52
2022-09-05T01:53:44.962Z,99060.78
2022-09-05T01:57:23.999Z,99066.96
2022-09-05T02:00:58.681Z,99068.71
2022-09-05T02:05:01.534Z,99066.91
2022-09-05T02:08:34.474Z,99066.91
2022-09-05T02:12:25.457Z,99065.58
2022-09-05T02:15:58.976Z,99066.61
2022-09-05T02:19:28.795Z,99062.59
2022-09-05T02:23:00.971Z,99064.96
2022-09-05T02:26:27.033Z,99062.52
2022-09-05T02:29:58.924Z,99063.70
2022-09-05T02:33:31.291Z,99067.90
2022-09-05T02:37:08.771Z,99065.94
2022-09-05T02:45:06.686Z,99068.47
2022-09-05T02:45:16.500Z,99075.51
2022-09-05T02:48:28.160Z,99082.65
2022-09-05T02:57:28.266Z,99079.58
2022-09-05T02:57:35.916Z,99079.74
2022-09-05T03:00:08.890Z,99084.10
2022-09-05T03:03:39.242Z,99083.48
2022-09-05T03:07:26.085Z,99085.01
2022-09-05T03:11:16.849Z,99080.10
2022-09-05T03:14:54.981Z,99084.77
2022-09-05T03:18:56.721Z,99084.38
2022-09-05T03:22:36.203Z,99082.80
2022-09-05T03:26:27.403Z,99088.20
2022-09-05T03:30:16.503Z,99090.87
2022-09-05T03:33:56.326Z,99091.36
2022-09-05T03:38:03.404Z,99093.65
2022-09-05T03:42:14.828Z,99092.09
2022-09-05T03:45:47.709Z,99092.16
2022-09-05T03:50:07.434Z,99088.44
2022-09-05T03:57:23.793Z,99089.08
2022-09-05T03:57:41.544Z,99094.70
2022-09-05T04:02:40.323Z,99099.75
2022-09-05T04:08:27.565Z,99101.33
2022-09-05T04:09:11.077Z,99102.92
2022-09-05T04:12:33.592Z,99100.45
2022-09-05T04:16:02.646Z,99101.02
2022-09-05T04:19:40.368Z,99104.48
2022-09-05T04:22:59.878Z,99109.95
2022-09-05T04:26:56.726Z,99113.27
2022-09-05T04:30:37.852Z,99117.98
2022-09-05T04:34:09.499Z,99120.77
2022-09-05T04:37:49.455Z,99123.05
2022-09-05T04:41:13.571Z,99128.03
2022-09-05T04:44:51.224Z,99135.38
2022-09-05T04:48:22.175Z,99136.17
2022-09-05T04:52:06.442Z,99138.53
2022-09-05T04:55:37.419Z,99145.48
2022-09-05T05:01:24.333Z,99144.77
2022-09-05T05:06:12.588Z,99144.87
2022-09-05T05:06:46.917Z,99145.41
2022-09-05T05:10:25.576Z,99146.60
2022-09-05T05:18:03.135Z,99148.89
2022-09-05T05:18:37.734Z,99153.71
2022-09-05T05:21:49.424Z,99155.77
2022-09-05T05:25:12.212Z,99156.23
2022-09-05T05:28:44.013Z,99158.27
2022-09-05T05:32:05.319Z,99160.15
2022-09-05T05:35:29.901Z,99163.70
2022-09-05T05:38:56.957Z,99165.11
2022-09-05T05:42:22.436Z,99167.30
2022-09-05T05:45:42.377Z,99174.16
2022-09-05T05:49:17.168Z,99172.81
2022-09-05T05:52:51.797Z,99173.63
2022-09-05T05:56:20.258Z,99173.50
2022-09-05T06:00:01.549Z,99174.16
2022-09-05T06:03:37.125Z,99175.54
2022-09-05T06:07:26.830Z,99172.60
2022-09-05T06:14:55.253Z,99176.23
2022-09-05T06:15:28.885Z,99176.22
2022-09-05T06:19:21.133Z,99173.46
2022-09-05T06:23:08.279Z,99176.23
2022-09-05T06:27:06.298Z,99174.83
2022-09-05T06:30:34.116Z,99176.95
2022-09-05T06:34:33.232Z,99173.00
2022-09-05T06:38:08.935Z,99176.98
2022-09-05T06:42:28.684Z,99177.54
2022-09-05T06:45:58.542Z,99177.60
2022-09-05T06:49:32.379Z,99178.88
2022-09-05T06:53:32.228Z,99179.80
2022-09-05T06:57:03.789Z,99181.19
2022-09-05T07:00:34.417Z,99188.25
2022-09-05T07:05:23.968Z,99187.37
2022-09-05T07:07:53.964Z,99187.71
2022-09-05T07:11:34.031Z,99195.43
2022-09-05T07:15:16.741Z,99197.84
2022-09-05T07:19:03.153Z,99196.30
2022-09-05T07:22:47.445Z,99198.52
2022-09-05T07:26:10.764Z,99200.23
2022-09-05T07:30:00.961Z,99200.52
2022-09-05T07:33:28.233Z,99204.04
2022-09-05T07:36:59.199Z,99206.68
2022-09-05T07:40:50.161Z,99204.21
2022-09-05T07:44:21.047Z,99204.88
2022-09-05T07:48:11.487Z,99204.05
2022-09-05T07:56:46.655Z,99202.03
2022-09-05T07:57:01.706Z,99204.95
2022-09-05T07:59:07.875Z,99206.30
2022-09-05T08:02:27.699Z,99204.77
2022-09-05T08:05:53.440Z,99205.92
2022-09-05T08:10:05.416Z,99204.12
2022-09-05T08:13:24.353Z,99199.85
2022-09-05T08:16:46.948Z,99203.98
2022-09-05T08:20:45.772Z,99206.02
2022-09-05T08:24:20.847Z,99205.10
2022-09-05T08:28:13.137Z,99202.02
2022-09-05T08:31:51.960Z,99204.25
2022-09-05T08:35:26.110Z,99198.59
2022-09-05T08:38:46.367Z,99202.51
2022-09-05T08:42:38.209Z,99197.25
2022-09-05T08:46:46.479Z,99192.98
2022-09-05T08:50:26.994Z,99191.63
2022-09-05T08:54:02.846Z,99185.81
2022-09-05T08:57:50.235Z,99182.86
2022-09-05T09:02:14.651Z,99180.55
2022-09-05T09:06:13.261Z,99184.67
2022-09-05T09:09:41.980Z,99185.42
2022-09-05T09:13:34.834Z,99182.20
2022-09-05T09:17:17.755Z,99178.32
2022-09-05T09:20:47.564Z,99176.72
2022-09-05T09:24:39.325Z,99179.29
2022-09-05T09:28:49.386Z,99180.17
2022-09-05T09:32:17.194Z,99180.62
2022-09-05T09:36:06.207Z,99179.84
2022-09-05T09:39:46.925Z,99180.17
2022-09-05T09:43:26.652Z,99175.80
2022-09-05T09:46:50.227Z,99173.41
2022-09-05T09:50:58.996Z,99171.39
2022-09-05T09:54:59.150Z,99168.13
2022-09-05T09:58:26.355Z,99167.81
2022-09-05T10:03:27.022Z,99168.25
2022-09-05T10:10:39.331Z,99166.33
2022-09-05T10:10:52.207Z,99162.83
2022-09-05T10:14:06.172Z,99162.45
2022-09-05T10:18:04.982Z,99155.60
2022-09-05T10:21:32.915Z,99158.09
2022-09-05T10:25:20.324Z,99152.89
2022-09-05T10:29:34.944Z,99146.51
2022-09-05T10:35:08.969Z,99145.85
2022-09-05T10:36:58.616Z,99141.35
2022-09-05T10:40:23.570Z,99134.77
2022-09-05T10:44:00.858Z,99134.47
2022-09-05T10:48:12.913Z,99125.04
2022-09-05T10:51:51.930Z,99126.56
2022-09-05T10:55:35.886Z,99124.70
2022-09-05T11:00:54.442Z,99124.83
2022-09-05T11:02:47.507Z,99121.91
2022-09-05T11:06:24.885Z,99122.85
2022-09-05T11:10:02.196Z,99125.59
2022-09-05T11:13:47.248Z,99123.23
2022-09-05T11:17:31.831Z,99132.50
2022-09-05T11:21:09.817Z,99131.11
2022-09-05T11:24:42.859Z,99127.58
2022-09-05T11:28:16.740Z,99123.95
2022-09-05T11:34:34.182Z,99122.16
2022-09-05T11:39:47.457Z,99119.46
2022-09-05T11:40:31.658Z,99120.86
2022-09-05T11:44:24.474Z,99119.91
2022-09-05T11:48:07.553Z,99117.11
2022-09-05T11:51:36.051Z,99116.94
2022-09-05T11:55:21.019Z,99120.17
2022-09-05T11:59:33.696Z,99117.65
2022-09-05T12:03:05.480Z,99113.29
2022-09-05T12:06:56.157Z,99109.84
2022-09-05T12:10:48.316Z,99112.11
2022-09-05T12:14:36.758Z,99112.67
2022-09-05T12:19:06.248Z,99108.84
2022-09-05T12:22:52.294Z,99106.58
2022-09-05T12:27:41.874Z,99098.38
2022-09-05T12:30:21.924Z,99097.95
2022-09-05T12:36:06.558Z,99095.58
2022-09-05T12:39:59.599Z,99090.29
2022-09-05T12:41:46.169Z,99094.59
2022-09-05T12:45:11.264Z,99097.40
2022-09-05T12:49:07.592Z,99090.71
2022-09-05T12:52:33.161Z,99086.80
2022-09-05T12:56:18.480Z,99084.66
2022-09-05T13:02:56.904Z,99086.60
2022-09-05T13:03:30.441Z,99080.81
2022-09-05T13:06:58.443Z,99083.55
2022-09-05T13:13:43.024Z,99078.79
2022-09-05T13:15:03.210Z,99075.89
2022-09-05T13:18:16.218Z,99080.63
2022-09-05T13:21:45.003Z,99078.70
2022-09-05T13:25:10.820Z,99075.39
2022-09-05T13:28:50.567Z,99073.77
2022-09-05T13:37:55.827Z,99069.60
2022-09-05T13:38:12.952Z,99065.98
2022-09-05T13:40:15.345Z,99065.58
2022-09-05T13:43:37.571Z,99070.89
2022-09-05T13:47:28.884Z,99069.27
2022-09-05T13:50:52.258Z,99067.64
2022-09-05T13:54:33.498Z,99065.27
2022-09-05T13:58:08.095Z,99065.59
2022-09-05T14:01:54.608Z,99066.10
2022-09-05T14:05:34.483Z,99063.21
2022-09-05T14:13:15.913Z,99059.43
2022-09-05T14:16:54.284Z,99058.79
2022-09-05T14:20:33.975Z,99053.88
2022-09-05T14:24:15.183Z,99055.29
2022-09-05T14:27:43.627Z,99054.34
2022-09-05T14:37:34.310Z,99051.83
2022-09-05T14:37:41.894Z,99049.84
2022-09-05T14:38:51.116Z,99047.66
2022-09-05T14:42:09.466Z,99043.48
2022-09-05T14:45:19.289Z,99040.58
2022-09-05T14:48:36.688Z,99032.34
2022-09-05T14:51:43.182Z,99033.80
2022-09-05T15:02:41.078Z,99027.36
2022-09-05T15:02:58.391Z,99033.23
2022-09-05T15:05:27.364Z,99022.78
2022-09-05T15:11:18.224Z,99020.91
2022-09-05T15:12:21.894Z,99024.23
2022-09-05T15:15:44.546Z,99017.95
2022-09-05T15:18:55.697Z,99013.45
2022-09-05T15:22:36.708Z,99015.66
2022-09-05T15:25:43.785Z,99013.48
2022-09-05T15:28:49.144Z,99015.50
2022-09-05T15:31:53.303Z,99011.80
2022-09-05T15:35:16.504Z,99013.15
2022-09-05T15:38:21.762Z,99015.17
2022-09-05T15:41:28.352Z,99011.33
2022-09-05T15:44:32.313Z,99007.40
2022-09-05T15:47:45.261Z,99001.59
2022-09-05T15:50:52.932Z,99006.42
2022-09-05T15:53:57.537Z,99002.48
2022-09-05T15:57:07.361Z,99003.20
2022-09-05T16:00:12.719Z,98997.25
2022-09-05T16:04:10.791Z,98998.33
2022-09-05T16:10:41.441Z,99003.44
2022-09-05T16:10:50.857Z,99002.64
2022-09-05T16:13:52.114Z,99004.24
2022-09-05T16:23:17.070Z,99000.17
2022-09-05T16:23:31.627Z,98997.14
2022-09-05T16:24:24.827Z,98994.48
2022-09-05T16:27:53.470Z,98990.29
2022-09-05T16:31:03.825Z,98994.09
2022-09-05T16:34:11.997Z,98994.42
2022-09-05T16:37:18.611Z,98994.36
2022-09-05T16:40:25.850Z,98995.62
2022-09-05T16:43:34.389Z,98992.11
2022-09-05T16:46:45.770Z,98989.84
2022-09-05T16:49:57.339Z,98990.89
2022-09-05T16:53:30.355Z,98989.31
2022-09-05T16:56:41.076Z,98995.10
2022-09-05T16:59:45.399Z,98994.67
2022-09-05T17:03:04.338Z,98993.13
2022-09-05T17:06:26.610Z,98988.49
2022-09-05T17:09:36.893Z,98988.70
2022-09-05T17:12:39.935Z,98987.98
2022-09-05T17:15:51.595Z,98988.20
2022-09-05T17:18:58.832Z,98986.05
2022-09-05T17:24:06.041Z,98985.86
2022-09-05T17:29:34.477Z,98990.15
2022-09-05T17:33:03.122Z,98991.44
2022-09-05T17:36:07.867Z,98995.19
2022-09-05T17:39:22.397Z,98997.98
2022-09-05T17:42:47.588Z,99001.36
2022-09-05T17:46:00.090Z,99005.13
2022-09-05T17:49:19.900Z,99011.59
2022-09-05T17:52:23.148Z,99012.41
2022-09-05T17:55:48.779Z,99020.68
2022-09-05T17:59:12.517Z,99018.16
2022-09-05T18:02:14.020Z,99021.25
2022-09-05T18:05:54.091Z,99025.55
2022-09-05T18:08:55.735Z,99028.20
2022-09-05T18:13:11.754Z,99025.34
2022-09-05T18:15:47.892Z,99028.01
2022-09-05T18:19:32.440Z,99032.19
2022-09-05T18:22:25.438Z,99031.55
2022-09-05T18:25:33.580Z,99031.02
2022-09-05T18:28:59.971Z,99032.92
2022-09-05T18:32:08.272Z,99033.31
2022-09-05T18:35:36.705Z,99033.68
2022-09-05T18:38:51.288Z,99033.48
2022-09-05T18:42:25.570Z,99033.81
2022-09-05T18:45:28.610Z,99033.01
2022-09-05T18:48:43.818Z,99031.33
2022-09-05T18:52:08.487Z,99033.61
2022-09-05T18:56:12.219Z,99036.35
2022-09-05T18:59:17.819Z,99033.71
2022-09-05T19:02:49.891Z,99035.51
2022-09-05T19:06:35.966Z,99035.40
2022-09-05T19:09:28.484Z,99034.39
2022-09-05T19:12:38.833Z,99029.52
2022-09-05T19:15:52.318Z,99029.84
2022-09-05T19:19:18.870Z,99025.42
2022-09-05T19:23:08.713Z,99026.42
2022-09-05T19:25:45.762Z,99022.90
2022-09-05T19:35:33.300Z,99017.55
2022-09-05T19:38:16.570Z,99015.23
2022-09-05T19:47:40.245Z,99014.14
2022-09-05T19:47:50.101Z,99015.23
2022-09-05T19:51:28.232Z,99006.19
2022-09-05T19:54:29.736Z,99005.91
2022-09-05T19:57:31.412Z,99001.63
2022-09-05T20:00:35.832Z,99000.01
2022-09-05T20:03:42.000Z,98998.23
2022-09-05T20:06:49.018Z,98999.86
2022-09-05T20:09:52.991Z,98997.53
2022-09-05T20:12:58.378Z,99002.48
2022-09-05T20:16:06.326Z,98994.88
2022-09-05T20:19:35.294Z,98995.54
2022-09-05T20:22:48.790Z,98992.73
2022-09-05T20:25:56.496Z,98994.92
2022-09-05T20:29:04.992Z,98997.64
2022-09-05T20:32:07.007Z,98997.17
2022-09-05T20:39:32.726Z,98999.19
2022-09-05T20:43:22.291Z,98992.81
2022-09-05T20:43:35.171Z,98989.14
2022-09-05T20:46:44.967Z,99001.81
2022-09-05T20:54:13.959Z,98998.14
2022-09-05T20:54:26.003Z,98998.34
2022-09-05T20:57:22.672Z,98995.71
2022-09-05T21:00:28.878Z,98998.14
2022-09-05T21:03:40.231Z,98999.05
2022-09-05T21:06:45.219Z,98999.81
2022-09-05T21:09:57.542Z,98990.67
2022-09-05T21:12:59.274Z,98989.74
2022-09-05T21:16:01.468Z,98992.41
2022-09-05T21:19:03.730Z,98992.45
2022-09-05T21:22:19.980Z,98997.09
2022-09-05T21:25:36.614Z,99000.30
2022-09-05T21:29:03.451Z,99000.33
2022-09-05T21:32:12.569Z,99003.06
2022-09-05T21:35:34.208Z,98999.70
2022-09-05T21:38:40.608Z,99000.73
2022-09-05T21:41:42.343Z,98998.63
2022-09-05T21:47:35.346Z,98999.93
2022-09-05T21:48:15.953Z,99000.82
2022-09-05T21:51:25.727Z,98998.45
2022-09-05T21:59:16.405Z,99005.55
2022-09-05T21:59:16.779Z,99001.95
2022-09-05T22:01:11.468Z,99005.09
2022-09-05T22:04:13.141Z,99002.89
2022-09-05T22:07:32.452Z,99005.38
2022-09-05T22:10:51.688Z,99003.33
2022-09-05T22:13:57.768Z,99004.47
2022-09-05T22:17:00.811Z,99001.33
2022-09-05T22:20:05.440Z,98992.94
2022-09-05T22:23:07.217Z,98991.70
2022-09-05T22:26:08.798Z,98988.02
2022-09-05T22:29:11.813Z,98986.55
2022-09-05T22:32:13.616Z,98984.52
2022-09-05T22:35:27.895Z,98978.57
2022-09-05T22:38:30.505Z,98970.96
2022-09-05T22:41:32.114Z,98968.84
2022-09-05T22:44:33.653Z,98968.45
2022-09-05T22:47:35.268Z,98969.32
2022-09-05T22:50:37.712Z,98966.87
2022-09-05T22:53:39.225Z,98968.14
2022-09-05T22:56:40.884Z,98969.40
2022-09-05T22:59:42.430Z,98973.77
2022-09-05T23:02:45.396Z,98972.62
2022-09-05T23:05:49.487Z,98968.55
2022-09-05T23:08:51.148Z,98966.66
2022-09-05T23:11:52.786Z,98965.44
2022-09-05T23:14:54.434Z,98963.73
2022-09-05T23:17:58.270Z,98965.48
2022-09-05T23:21:01.440Z,98958.58
2022-09-05T23:24:03.156Z,98960.31
2022-09-05T23:27:04.745Z,98959.79
2022-09-05T23:30:07.518Z,98955.70
2022-09-05T23:33:09.658Z,98955.06
2022-09-05T23:36:15.679Z,98956.44
2022-09-05T23:39:17.287Z,98950.52
2022-09-05T23:42:18.774Z,98947.16
2022-09-05T23:45:22.050Z,98945.13
2022-09-05T23:48:23.914Z,98944.89
2022-09-05T23:51:25.555Z,98951.56
2022-09-05T23:54:27.096Z,98951.50
2022-09-05T23:57:28.709Z,98949.55
